Flight Track Log - Related Links

Times and Time Zones

All times are in EST time to prevent confusion due to time zone crossing. See the UCA596 flight status page for this flight to view local times or setup timezone preferences in your user account.

Time Position Orientation Groundspeed Altitude Reporting Facility
EST Latitude Longitude Course Direction KTS MPH feet Rate Location/Type
Wed 01:03:16 PM 38.9500 -77.5000 322° Northwest 124 143 1,700  Level Potomac TRACON
Wed 01:04:10 PM 38.9833 -77.5333 322° Northwest 180 207 2,600 1,211 Climbing Potomac TRACON
Wed 01:05:10 PM 39.0167 -77.5833 311° West 181 208 4,000 1,400 Climbing Potomac TRACON
Wed 01:06:10 PM 39.0667 -77.5833 360° North 213 245 5,400 1,300 Climbing Potomac TRACON
Wed 01:07:10 PM 39.1333 -77.5667 11° North 209 241 6,600 1,000 Climbing Potomac TRACON
Wed 01:08:04 PM 39.1833 -77.5667 360° North 213 245 7,300 1,053 Climbing Potomac TRACON
Wed 01:09:04 PM 39.2333 -77.5500 14° North 222 255 8,600 1,350 Climbing Potomac TRACON
Wed 01:10:04 PM 39.3000 -77.5333 11° North 218 251 10,000 1,350 Climbing Potomac TRACON
Wed 01:11:04 PM 39.3500 -77.5167 14° North 229 264 11,300 1,239 Climbing Potomac TRACON
Wed 01:11:36 PM 39.3758 -77.4869 42° Northeast 248 285 11,900 645 Climbing Washington Center
Wed 01:12:37 PM 39.4375 -77.4133 43° Northeast 274 315 12,300 893 Climbing Washington Center
Wed 01:13:37 PM 39.4861 -77.3556 43° Northeast 274 315 13,700 1,140 Climbing Washington Center
Wed 01:14:38 PM 39.5453 -77.3058 33° Northeast 269 310 14,600 893 Climbing Washington Center
Wed 01:15:38 PM 39.5883 -77.3500 322° Northwest 188 216 15,500 1,101 Climbing Washington Center
Wed 01:17:16 PM 39.6333 -77.4350 305° West 154 177 17,500 1,215 Climbing New York Center
Wed 01:18:16 PM 39.6947 -77.4544 346° North 203 234 18,700 750 Climbing New York Center
Wed 01:19:16 PM 39.7594 -77.4525 North 229 264 19,000 150 Climbing New York Center
Wed 01:20:16 PM 39.8458 -77.4389 North 270 311 19,000  Level New York Center
Wed 01:21:16 PM 39.9192 -77.3944 25° Northeast 292 336 19,000  Level New York Center
Wed 01:22:16 PM 40.0094 -77.3461 22° Northeast 306 352 19,000  Level New York Center
Wed 01:23:16 PM 40.0806 -77.3067 23° Northeast 312 359 19,000  Level New York Center
Wed 01:24:16 PM 40.1683 -77.2633 21° North 307 353 19,000  Level New York Center
Wed 01:25:16 PM 40.2417 -77.2211 24° Northeast 307 353 19,000  Level New York Center
Wed 01:26:16 PM 40.3297 -77.1722 23° Northeast 307 353 19,000  Level New York Center
Wed 01:27:16 PM 40.4028 -77.1328 22° Northeast 307 353 19,000  Level New York Center
Wed 01:28:16 PM 40.4928 -77.0836 23° Northeast 307 353 19,000  Level New York Center
Wed 01:29:16 PM 40.5639 -77.0436 23° Northeast 307 353 19,000  Level New York Center
Wed 01:30:16 PM 40.6539 -76.9944 23° Northeast 307 353 19,000  Level New York Center
Wed 01:31:16 PM 40.7269 -76.9544 23° Northeast 307 353 19,000  Level New York Center
Wed 01:32:16 PM 40.8192 -76.9025 23° Northeast 307 353 19,000  Level New York Center
Wed 01:33:16 PM 40.8922 -76.8625 22° Northeast 307 353 19,000 -350 Level New York Center
Wed 01:34:16 PM 40.9736 -76.8175 23° Northeast 307 353 18,300 -1,000 Descending New York Center
Wed 01:35:16 PM 41.0531 -76.7722 23° Northeast 307 353 17,000 -1,150 Descending New York Center
Wed 01:36:16 PM 41.1281 -76.7292 23° Northeast 302 348 16,000 -1,000 Descending New York Center
Wed 01:37:16 PM 41.2033 -76.6864 23° Northeast 302 348 15,000 -1,000 Descending New York Center
Wed 01:38:16 PM 41.2828 -76.6381 25° Northeast 307 353 14,000 -950 Descending New York Center
Wed 01:39:16 PM 41.3706 -76.5903 22° Northeast 307 353 13,100 -450 Descending New York Center
Wed 01:40:16 PM 41.4456 -76.5469 23° Northeast 307 353 13,100  Level New York Center
Wed 01:41:16 PM 41.5181 -76.5089 21° North 296 341 13,100  Level New York Center
Wed 01:42:16 PM 41.5825 -76.4672 26° Northeast 291 335 13,100 -500 Level New York Center
Wed 01:43:16 PM 41.6575 -76.4264 22° Northeast 285 328 12,100 -1,200 Descending New York Center
Wed 01:44:16 PM 41.7411 -76.3778 23° Northeast 285 328 10,700 -1,400 Descending New York Center
Wed 01:45:16 PM 41.8175 -76.3425 19° North 285 328 9,300 -1,300 Descending New York Center
Wed 01:46:16 PM 41.8919 -76.3125 17° North 285 328 8,100 -1,250 Descending New York Center
Wed 01:47:16 PM 41.9578 -76.2847 17° North 279 321 6,800 -1,350 Descending New York Center
Wed 01:48:16 PM 42.0383 -76.2522 17° North 273 314 5,400 -1,300 Descending New York Center
Wed 01:49:16 PM 42.1086 -76.2217 18° North 268 308 4,200 -950 Descending New York Center
Wed 01:50:16 PM 42.1783 -76.1994 13° North 268 308 3,500 -350 Descending New York Center
Wed 01:51:16 PM 42.2417 -76.1767 15° North 249 287 3,500  Level New York Center
Wed 01:52:16 PM 42.2994 -76.1900 350° North 222 255 3,500  Level New York Center
Wed 01:53:16 PM 42.3464 -76.1658 21° North 201 231 3,500  Level New York Center
Wed 01:54:16 PM 42.3369 -76.0950 100° East 132 152 3,500  Level New York Center
Wed 01:55:16 PM 42.2969 -76.0608 148° Southeast 114 131 3,500 -350 Level New York Center
Wed 01:56:16 PM 42.2608 -76.0269 145° Southeast 134 154 2,800 -700 Descending New York Center
Wed 01:58:00 PM 42.2084 -75.9796 North  Level Estimated
Wed 02:05:00 PM 42.2084 -75.9796 North  Level Estimated
Wed 02:06:00 PM 42.2084 -75.9796 North  Level Estimated
Wed 02:07:00 PM 42.2084 -75.9796 North  Level Estimated
Wed 02:08:00 PM 42.2084 -75.9796 North  Level Estimated

Login

Don't have an account? Register now (free) for customized features, flight alerts, and more!